Weather observations for the past three days for
Northwest Arkansas Regional Airport
Imperial (Metric)
Date Time (cdt) Wind (mph) Vis. (mi.) Weather Sky Cond. Temperature (ºF) Relative Humidity Wind Chill (°F) Heat Index (°F) Pressure Precipitation (in)
Air Dwpt 6 hour altimeter (in) sea level (mb) 1 hr 3 hr 6 hr
Max. Min.
31 11:53 SW 10 10.00 Fair CLR 95 64 36% 97 30.1 1017.3
31 10:53 SW 8 G 17 10.00 Fair CLR 91.9 64 40% 94 30.1 1017.3
31 09:53 S 12 10.00 Fair CLR 88 66 48% 90 30.1 1017.2
31 08:53 S 8 10.00 Fair CLR 82.9 64.9 55% 85 30.1 1017.4
31 07:53 S 5 10.00 Fair CLR 78.1 64 62% 80 30.08 1016.8
31 06:53 S 6 10.00 Fair CLR 75.9 62.1 80.1 75 62% 78 30.06 1016.1
31 05:53 S 6 10.00 Fair CLR 75.9 62.1 62% 78 30.05 1015.6
31 04:53 S 7 10.00 Fair CLR 77 61 58% 79 30.05 1015.4
31 03:53 S 6 10.00 Fair CLR 77 60.1 56% 79 30.03 1014.9
31 02:53 S 5 10.00 Fair CLR 77 57.9 52% 79 30.02 1014.7
31 01:53 S 9 10.00 Fair CLR 79 57.9 49% 80 30.03 1014.9
31 00:53 S 6 10.00 Fair CLR 79 57.9 95 79 49% 80 30.04 1015.0
30 23:53 S 7 10.00 Fair CLR 80.1 60.1 51% 81 30.02 1014.7
30 22:53 S 9 10.00 Fair CLR 82.9 61 48% 83 30.02 1014.5
30 21:53 S 10 10.00 Fair CLR 84 60.1 44% 84 30 1014.2
30 20:53 S 8 10.00 Fair CLR 86 57.9 39% 85 29.98 1013.5
30 19:53 S 6 10.00 Fair CLR 88 57 35% 87 29.97 1013.1
30 18:53 S 8 10.00 Fair CLR 95 55.9 100 95 27% 93 29.97 1013.2
30 17:53 S 13 10.00 Fair CLR 97 57 26% 96 29.98 1013.2
30 16:53 S 15 G 21 10.00 Fair CLR 98.1 57 25% 97 29.98 1013.3
30 15:53 S 13 G 20 10.00 Fair CLR 99 57 25% 98 29.99 1013.5
30 14:53 Calm 10.00 Fair CLR 97 59 28% 97 30.01 1014.2
30 13:53 S 9 G 21 10.00 Fair CLR 96.1 60.1 30% 96 30.03 1014.9
30 12:53 SW 14 G 22 10.00 Fair CLR 96.1 59 96.1 71.1 29% 96 30.04 1015.5
30 11:53 S 15 G 23 10.00 Fair CLR 93.9 57.9 30% 93 30.06 1016.1
30 10:53 S 15 10.00 Fair CLR 91 59 34% 90 30.07 1016.5
30 09:53 S 13 G 21 10.00 Fair CLR 86 61 43% 86 30.07 1016.4
30 08:53 S 13 10.00 Fair CLR 80.1 61 52% 81 30.07 1016.7
30 07:53 S 8 10.00 Fair CLR 75 60.1 60% 77 30.07 1016.6
30 06:53 S 5 10.00 Fair CLR 71.1 57.9 75.9 70 63% 30.06 1015.9
30 05:53 S 3 10.00 Fair CLR 72 57 59% 30.05 1015.7
30 04:53 SE 5 10.00 Fair CLR 72 57 59% 30.05 1015.7
30 03:53 S 5 10.00 Fair CLR 73 57 57% 30.04 1015.5
30 02:53 S 6 10.00 Fair CLR 73.9 57 56% 30.03 1015.1
30 01:53 S 8 10.00 Fair CLR 73.9 57 56% 30.05 1015.6
30 00:53 S 5 10.00 Fair CLR 75 57 93.9 75 54% 78 30.05 1015.8
29 23:53 S 6 10.00 Fair CLR 77 57.9 52% 79 30.06 1015.9
29 22:53 S 8 10.00 Fair CLR 80.1 57.9 47% 81 30.05 1015.6
29 21:53 S 8 10.00 Fair CLR 81 57.9 45% 81 30.04 1015.4
29 20:53 S 7 10.00 Fair CLR 84 57 40% 83 30.01 1014.6
29 19:53 SW 6 10.00 Fair CLR 88 57 35% 87 30.01 1014.4
29 18:53 S 10 10.00 Fair CLR 93.9 55.9 98.1 91.9 28% 92 30.01 1014.4
29 17:53 SW 8 10.00 Fair CLR 96.1 57 27% 95 30.01 1014.4
29 16:53 S 9 10.00 Fair CLR 97 55.9 25% 95 30.01 1014.5
29 15:53 Vrbl 6 10.00 Fair CLR 97 55 24% 95 30.03 1015.1
29 14:53 SW 10 10.00 Fair CLR 96.1 57 27% 95 30.06 1016.0
29 13:53 Calm 10.00 A Few Clouds FEW075 93.9 57.9 30% 93 30.08 1016.9
29 12:53 Vrbl 5 10.00 Fair CLR 93 60.1 93 68 33% 93 30.11 1017.8
29 11:53 SW 10 10.00 Fair CLR 91 61 37% 91 30.13 1018.6
29 10:53 S 15 G 20 10.00 Fair CLR 88 61 40% 88 30.14 1018.8
29 09:53 S 9 10.00 Fair CLR 82.9 62.1 49% 84 30.14 1019.0
29 08:53 SE 7 10.00 Fair CLR 77 62.1 60% 79 30.14 1019.0
29 07:53 Calm 10.00 Fair CLR 71.1 61 71% 30.14 1018.9
29 06:53 E 3 10.00 Fair CLR 68 59 75.9 64 73% 30.13 1018.6
29 05:53 Calm 10.00 Fair CLR 66.9 57.9 73% 30.12 1018.2
29 04:53 Calm 10.00 Fair CLR 69.1 57.9 68% 30.12 1018.0
29 03:53 Calm 10.00 Fair CLR 69.1 57.9 68% 30.11 1017.9
29 02:53 Calm 10.00 Fair CLR 71.1 57.9 63% 30.12 1017.9
29 01:53 E 3 10.00 Fair CLR 69.1 57.9 68% 30.12 1018.1
29 00:53 SE 5 10.00 Fair CLR 73.9 57.9 91.9 72 57% 30.12 1018.2
28 23:53 E 3 10.00 Fair CLR 75 59 58% 77 30.13 1018.4
28 22:53 SE 3 10.00 Fair CLR 78.1 57.9 50% 79 30.12 1018.1
28 21:53 E 5 10.00 Fair CLR 80.1 57 45% 80 30.1 1017.7
28 20:53 E 3 10.00 Fair CLR 82.9 57 41% 82 30.09 1017.1
28 19:53 E 5 10.00 Fair CLR 87.1 57 36% 86 30.07 1016.7
28 18:53 NE 8 10.00 Fair CLR 91.9 54 95 89.1 28% 90 30.07 1016.7
28 17:53 NE 9 G 16 10.00 Fair CLR 93.9 55 27% 92 30.07 1016.7
28 16:53 NE 5 10.00 Fair CLR 95 55 26% 93 30.07 1016.7
28 15:53 E 12 G 23 10.00 Fair CLR 95 54 25% 93 30.09 1017.2
28 14:53 NE 10 G 16 10.00 Fair CLR 93.9 57 29% 93 30.11 1017.9
28 13:53 Vrbl 7 10.00 Fair CLR 93 57 30% 92 30.13 1018.8
28 12:53 NE 9 10.00 Fair CLR 90 57 90 62.1 33% 89 30.15 1019.4
Date Time (cdt) Wind (mph) Vis. (mi.) Weather Sky Cond. Air Dwpt Max. Min. Relative Humidity Wind Chill (°F) Heat Index (°F) altimeter (in) sea level (mb) 1 hr 3 hr 6 hr
6 hour
Temperature (ºF) Pressure Precipitation (in)